Time;durP1;ratioP1;P1;durP2;ratioP2;P2;SDS_P1;SDS_P2;PMS_P1;PMS_P2;Temp;Humidity;BMP_temperature;BMP_pressure;BME280_temperature;BME280_humidity;BME280_pressure;Samples;Min_cycle;Max_cycle;Signal;HPM_P1;HPM_P2
2021/09/23 00:01:03;;;;;;;32.43;16.47;;;;;;;;;;5054472;28;20455;-81
2021/09/23 00:03:55;;;;;;;37.00;17.70;;;;;;;;;;5054418;28;20444;-80
2021/09/23 00:06:22;;;;;;;37.80;18.17;;;;;;;;;;5054095;28;20473;-80
2021/09/23 00:08:49;;;;;;;35.50;16.60;;;;;;;;;;5054759;28;20972;-80
2021/09/23 00:11:17;;;;;;;35.87;17.93;;;;;;;;;;5076341;28;20454;-81
2021/09/23 00:13:44;;;;;;;38.83;18.93;;;;;;;;;;5076224;28;20457;-79
2021/09/23 00:16:11;;;;;;;34.60;17.20;;;;;;;;;;5076003;28;20489;-78
2021/09/23 00:18:39;;;;;;;38.70;18.60;;;;;;;;;;5075454;28;20837;-79
2021/09/23 00:21:07;;;;;;;41.53;18.90;;;;;;;;;;5076353;28;20448;-79
2021/09/23 00:23:34;;;;;;;35.93;17.30;;;;;;;;;;5070160;28;20459;-80
2021/09/23 00:26:01;;;;;;;44.47;19.50;;;;;;;;;;5056205;28;20474;-79
2021/09/23 00:28:29;;;;;;;41.33;18.67;;;;;;;;;;5055111;28;20460;-79
2021/09/23 00:30:56;;;;;;;37.27;19.67;;;;;;;;;;5055262;28;20442;-80
2021/09/23 00:33:23;;;;;;;39.17;18.80;;;;;;;;;;5054869;28;20463;-81
2021/09/23 00:35:52;;;;;;;38.70;18.80;;;;;;;;;;5059299;28;20493;-81
2021/09/23 00:38:19;;;;;;;39.10;18.60;;;;;;;;;;5073235;28;20452;-81
2021/09/23 00:40:46;;;;;;;42.13;19.80;;;;;;;;;;5075719;28;20455;-82
2021/09/23 00:43:13;;;;;;;40.03;19.10;;;;;;;;;;5075313;28;20456;-80
2021/09/23 00:45:41;;;;;;;42.13;20.37;;;;;;;;;;5074137;28;20560;-80
2021/09/23 00:48:08;;;;;;;39.70;20.20;;;;;;;;;;5083583;28;20446;-80
2021/09/23 00:50:35;;;;;;;37.13;20.13;;;;;;;;;;5086799;28;20834;-80
2021/09/23 00:53:03;;;;;;;38.33;19.73;;;;;;;;;;5091094;28;20957;-80
2021/09/23 00:55:31;;;;;;;37.87;20.63;;;;;;;;;;5099713;28;20628;-81
2021/09/23 00:57:58;;;;;;;37.83;20.13;;;;;;;;;;5093287;28;20449;-80
2021/09/23 01:00:25;;;;;;;38.87;20.97;;;;;;;;;;5093931;28;20439;-80
2021/09/23 01:02:52;;;;;;;40.77;20.17;;;;;;;;;;5099752;28;20943;-80
2021/09/23 01:05:20;;;;;;;37.37;19.07;;;;;;;;;;5092445;28;20479;-80
2021/09/23 01:07:47;;;;;;;36.60;19.60;;;;;;;;;;5079242;28;20446;-81
2021/09/23 01:10:17;;;;;;;39.83;20.30;;;;;;;;;;5077603;28;20471;-80
2021/09/23 01:12:45;;;;;;;37.77;19.63;;;;;;;;;;5089640;28;20781;-80
2021/09/23 01:15:13;;;;;;;35.60;18.17;;;;;;;;;;5087190;28;20991;-81
2021/09/23 01:17:40;;;;;;;30.97;16.83;;;;;;;;;;5095455;28;20454;-80
2021/09/23 01:20:08;;;;;;;34.17;17.40;;;;;;;;;;5089200;28;20462;-81
2021/09/23 01:22:37;;;;;;;33.80;17.60;;;;;;;;;;5089761;28;20454;-81
2021/09/23 01:25:05;;;;;;;38.53;17.93;;;;;;;;;;5099012;28;20483;-81
2021/09/23 01:27:32;;;;;;;32.87;17.70;;;;;;;;;;5098283;28;20447;-80
2021/09/23 01:30:00;;;;;;;30.30;15.67;;;;;;;;;;5099151;28;20438;-80
2021/09/23 01:32:27;;;;;;;35.73;16.43;;;;;;;;;;5099606;28;20457;-82
2021/09/23 01:34:54;;;;;;;36.77;17.13;;;;;;;;;;5077710;28;20490;-80
2021/09/23 01:37:22;;;;;;;33.23;17.30;;;;;;;;;;5077859;28;20448;-81
2021/09/23 01:39:50;;;;;;;34.17;17.97;;;;;;;;;;5079253;28;20549;-81
2021/09/23 01:42:17;;;;;;;36.80;17.43;;;;;;;;;;5078785;28;20452;-81
2021/09/23 01:44:44;;;;;;;34.67;18.20;;;;;;;;;;5078688;28;20494;-79
2021/09/23 01:47:11;;;;;;;33.53;17.00;;;;;;;;;;5077517;28;20448;-81
2021/09/23 01:49:38;;;;;;;33.73;18.07;;;;;;;;;;5078700;28;20447;-81
2021/09/23 01:52:06;;;;;;;34.40;16.47;;;;;;;;;;5078942;28;20447;-81
2021/09/23 01:54:33;;;;;;;35.30;17.80;;;;;;;;;;5078811;28;20496;-81
2021/09/23 01:57:01;;;;;;;31.20;16.30;;;;;;;;;;5076053;28;20825;-82
2021/09/23 01:59:28;;;;;;;30.70;16.00;;;;;;;;;;5079942;28;20437;-81
2021/09/23 02:01:55;;;;;;;33.30;16.07;;;;;;;;;;5080446;28;20450;-81
2021/09/23 02:04:22;;;;;;;31.53;14.93;;;;;;;;;;5079724;28;20526;-81
2021/09/23 02:06:49;;;;;;;31.60;15.77;;;;;;;;;;5078756;28;20454;-80
2021/09/23 02:09:17;;;;;;;29.43;14.77;;;;;;;;;;5080014;28;20688;-81
2021/09/23 02:11:44;;;;;;;29.20;14.23;;;;;;;;;;5062292;28;20461;-81
2021/09/23 02:14:12;;;;;;;31.27;15.33;;;;;;;;;;5065139;28;20459;-81
2021/09/23 02:16:39;;;;;;;31.97;15.80;;;;;;;;;;5056318;28;20498;-81
2021/09/23 02:19:07;;;;;;;31.57;14.97;;;;;;;;;;5056004;28;20453;-81
2021/09/23 02:21:34;;;;;;;26.20;13.13;;;;;;;;;;5056420;28;20448;-80
2021/09/23 02:24:01;;;;;;;30.73;14.93;;;;;;;;;;5060143;28;20957;-81
2021/09/23 02:26:28;;;;;;;31.87;14.27;;;;;;;;;;5077856;28;20474;-79
2021/09/23 02:28:55;;;;;;;27.73;12.37;;;;;;;;;;5077785;28;20978;-81
2021/09/23 02:31:24;;;;;;;26.60;12.53;;;;;;;;;;5079026;28;20457;-80
2021/09/23 02:33:51;;;;;;;27.83;11.90;;;;;;;;;;5078563;28;20475;-80
2021/09/23 02:36:18;;;;;;;25.83;11.97;;;;;;;;;;5078121;28;20550;-80
2021/09/23 02:38:46;;;;;;;27.07;12.50;;;;;;;;;;5077095;28;20847;-81
2021/09/23 02:41:13;;;;;;;30.33;12.33;;;;;;;;;;5077456;28;20458;-80
2021/09/23 02:43:40;;;;;;;25.63;11.47;;;;;;;;;;5077024;28;20447;-80
2021/09/23 02:46:10;;;;;;;23.80;11.73;;;;;;;;;;5076935;28;20480;-80
2021/09/23 02:48:38;;;;;;;29.57;13.10;;;;;;;;;;5077565;28;20966;-80
2021/09/23 02:51:08;;;;;;;24.20;10.73;;;;;;;;;;5077556;28;20451;-81
2021/09/23 02:53:35;;;;;;;24.43;11.50;;;;;;;;;;5077699;28;20472;-80
2021/09/23 02:56:02;;;;;;;26.97;11.13;;;;;;;;;;5077897;28;20493;-81
2021/09/23 02:58:30;;;;;;;24.87;11.97;;;;;;;;;;5077498;28;20452;-80
2021/09/23 03:00:57;;;;;;;23.43;10.27;;;;;;;;;;5078246;28;20457;-82
2021/09/23 03:03:24;;;;;;;24.23;10.93;;;;;;;;;;5077461;28;20460;-80
2021/09/23 03:05:53;;;;;;;25.13;10.83;;;;;;;;;;5069944;28;20482;-80
2021/09/23 03:08:21;;;;;;;28.33;10.40;;;;;;;;;;5056001;28;20459;-81
2021/09/23 03:10:48;;;;;;;23.90;11.07;;;;;;;;;;5055997;28;21030;-81
2021/09/23 03:13:15;;;;;;;24.77;11.67;;;;;;;;;;5055489;28;20459;-81
2021/09/23 03:15:42;;;;;;;25.23;11.03;;;;;;;;;;5055334;28;20481;-81
2021/09/23 03:18:10;;;;;;;25.67;11.33;;;;;;;;;;5054640;28;20449;-81
2021/09/23 03:20:37;;;;;;;23.57;9.53;;;;;;;;;;5067112;28;20462;-81
2021/09/23 03:23:05;;;;;;;23.73;10.13;;;;;;;;;;5076817;28;20522;-81
2021/09/23 03:25:32;;;;;;;22.37;10.37;;;;;;;;;;5057067;28;20473;-79
2021/09/23 03:27:59;;;;;;;21.43;10.40;;;;;;;;;;5069723;28;20458;-81
2021/09/23 03:30:27;;;;;;;21.30;9.37;;;;;;;;;;5065266;28;20494;-80
2021/09/23 03:32:54;;;;;;;23.30;10.00;;;;;;;;;;5084120;28;20450;-80
2021/09/23 03:35:21;;;;;;;24.50;9.77;;;;;;;;;;5084596;28;20490;-80
2021/09/23 03:37:48;;;;;;;25.80;9.87;;;;;;;;;;5083883;28;20453;-80
2021/09/23 03:40:17;;;;;;;20.00;9.40;;;;;;;;;;5089743;28;20939;-80
2021/09/23 03:42:44;;;;;;;22.77;9.43;;;;;;;;;;5095658;28;20943;-81
2021/09/23 03:45:12;;;;;;;22.70;9.80;;;;;;;;;;5093734;28;20472;-80
2021/09/23 03:47:39;;;;;;;20.90;10.00;;;;;;;;;;5081873;28;20458;-81
2021/09/23 03:50:06;;;;;;;23.40;9.63;;;;;;;;;;5055177;28;20454;-81
2021/09/23 03:52:34;;;;;;;21.80;9.90;;;;;;;;;;5054581;28;20464;-80
2021/09/23 03:55:01;;;;;;;21.40;9.27;;;;;;;;;;5078984;28;20482;-80
2021/09/23 03:57:30;;;;;;;22.97;10.17;;;;;;;;;;5083433;28;20455;-80
2021/09/23 03:59:57;;;;;;;22.87;9.50;;;;;;;;;;5087532;28;20462;-80
2021/09/23 04:02:24;;;;;;;23.57;10.57;;;;;;;;;;5089037;28;20459;-81
2021/09/23 04:04:51;;;;;;;21.10;9.20;;;;;;;;;;5087094;28;20466;-81
2021/09/23 04:07:18;;;;;;;22.27;9.73;;;;;;;;;;5089132;28;20510;-81
2021/09/23 04:09:45;;;;;;;23.03;10.20;;;;;;;;;;5098064;28;20446;-83
2021/09/23 04:12:13;;;;;;;24.83;10.37;;;;;;;;;;5099507;28;21078;-82
2021/09/23 04:14:41;;;;;;;21.17;9.90;;;;;;;;;;5088599;28;20465;-84
2021/09/23 04:17:09;;;;;;;22.50;9.10;;;;;;;;;;5075786;28;20479;-83
2021/09/23 04:19:36;;;;;;;22.33;8.37;;;;;;;;;;5078677;28;20462;-83
2021/09/23 04:22:03;;;;;;;20.47;8.70;;;;;;;;;;5081294;28;20446;-82
2021/09/23 04:24:30;;;;;;;22.43;9.00;;;;;;;;;;5080700;28;20450;-84
2021/09/23 04:26:57;;;;;;;21.40;9.17;;;;;;;;;;5081368;28;20453;-83
2021/09/23 04:29:25;;;;;;;21.50;8.60;;;;;;;;;;5077973;28;20451;-83
2021/09/23 04:31:53;;;;;;;21.90;9.80;;;;;;;;;;5062878;28;20535;-83
2021/09/23 04:34:20;;;;;;;22.47;9.73;;;;;;;;;;5063553;28;20935;-83
2021/09/23 04:36:48;;;;;;;24.23;9.93;;;;;;;;;;5133294;22;20516;-86
2021/09/23 04:39:16;;;;;;;22.60;8.73;;;;;;;;;;5129267;27;20581;-87
2021/09/23 04:41:43;;;;;;;22.60;10.17;;;;;;;;;;5123698;27;20455;-86
2021/09/23 04:44:10;;;;;;;21.30;8.80;;;;;;;;;;5120923;27;20444;-87
2021/09/23 04:46:37;;;;;;;21.30;9.00;;;;;;;;;;5110521;28;20472;-87
2021/09/23 04:49:06;;;;;;;29.03;10.40;;;;;;;;;;5134286;27;20434;-87
2021/09/23 04:51:33;;;;;;;20.67;9.30;;;;;;;;;;5135628;27;20462;-87
2021/09/23 04:54:03;;;;;;;23.03;10.57;;;;;;;;;;5135717;27;20854;-87
2021/09/23 04:56:30;;;;;;;22.50;9.87;;;;;;;;;;5131938;27;20485;-88
2021/09/23 04:58:57;;;;;;;23.00;10.23;;;;;;;;;;5116132;27;20453;-88
2021/09/23 05:01:24;;;;;;;26.70;10.23;;;;;;;;;;5114588;27;20454;-86
2021/09/23 05:03:51;;;;;;;23.80;10.57;;;;;;;;;;5128512;27;20455;-87
2021/09/23 05:06:21;;;;;;;26.00;11.00;;;;;;;;;;5112317;28;20457;-87
2021/09/23 05:08:48;;;;;;;23.47;9.77;;;;;;;;;;5118095;27;20460;-88
2021/09/23 05:11:15;;;;;;;23.33;10.03;;;;;;;;;;5125344;27;20994;-87
2021/09/23 05:13:42;;;;;;;22.53;9.97;;;;;;;;;;5117195;27;20456;-87
2021/09/23 05:16:09;;;;;;;13.83;4.33;;;;;;;;;;5118169;27;20480;-84
2021/09/23 05:18:36;;;;;;;17.60;7.67;;;;;;;;;;5115470;27;20456;-85
2021/09/23 05:21:03;;;;;;;20.23;9.03;;;;;;;;;;5121613;27;20450;-86
2021/09/23 05:23:32;;;;;;;20.30;8.77;;;;;;;;;;5120407;27;20822;-86
2021/09/23 05:25:59;;;;;;;19.33;7.63;;;;;;;;;;5114671;27;20476;-86
2021/09/23 05:28:27;;;;;;;20.50;10.77;;;;;;;;;;5113195;28;20984;-87
2021/09/23 05:30:54;;;;;;;18.37;7.70;;;;;;;;;;5103395;28;21138;-86
2021/09/23 05:33:21;;;;;;;18.87;8.00;;;;;;;;;;5116972;27;20460;-85
2021/09/23 05:35:48;;;;;;;19.20;7.30;;;;;;;;;;5117881;27;20531;-85
2021/09/23 05:38:15;;;;;;;21.70;7.50;;;;;;;;;;5105136;28;20457;-85
2021/09/23 05:40:44;;;;;;;22.33;8.40;;;;;;;;;;5094236;28;20461;-85
2021/09/23 05:43:11;;;;;;;22.70;7.47;;;;;;;;;;5093582;28;20450;-85
2021/09/23 05:45:38;;;;;;;23.00;7.93;;;;;;;;;;5096279;28;20462;-84
2021/09/23 05:48:05;;;;;;;19.40;7.50;;;;;;;;;;5092752;28;20455;-85
2021/09/23 05:50:32;;;;;;;18.37;7.27;;;;;;;;;;5093918;28;20453;-85
2021/09/23 05:53:00;;;;;;;19.90;7.03;;;;;;;;;;5093824;28;20455;-87
2021/09/23 05:55:28;;;;;;;19.70;8.37;;;;;;;;;;5106194;28;20481;-86
2021/09/23 05:57:57;;;;;;;19.73;7.33;;;;;;;;;;5120282;27;20452;-87
2021/09/23 06:00:24;;;;;;;20.90;8.13;;;;;;;;;;5118100;27;20537;-87
2021/09/23 06:02:51;;;;;;;22.23;9.20;;;;;;;;;;5094581;28;20451;-86
2021/09/23 06:05:18;;;;;;;21.60;8.43;;;;;;;;;;5096090;28;20478;-87
2021/09/23 06:07:46;;;;;;;22.63;7.80;;;;;;;;;;5121280;27;20458;-87
2021/09/23 06:10:13;;;;;;;21.47;7.93;;;;;;;;;;5117658;28;20943;-87
2021/09/23 06:12:41;;;;;;;20.63;8.10;;;;;;;;;;5115454;27;20452;-87
2021/09/23 06:15:10;;;;;;;19.47;7.43;;;;;;;;;;5131810;27;20948;-85
2021/09/23 06:17:38;;;;;;;25.90;8.37;;;;;;;;;;5120691;28;20483;-86
2021/09/23 06:20:06;;;;;;;19.50;8.10;;;;;;;;;;5120746;28;20546;-86
2021/09/23 06:22:34;;;;;;;20.80;7.70;;;;;;;;;;5117032;28;20467;-86
2021/09/23 06:25:01;;;;;;;20.03;7.63;;;;;;;;;;5117200;28;20516;-86
2021/09/23 06:27:28;;;;;;;19.83;7.30;;;;;;;;;;5122022;28;20523;-86
2021/09/23 06:29:58;;;;;;;19.00;7.73;;;;;;;;;;5122581;28;20449;-86
2021/09/23 06:32:26;;;;;;;21.40;7.67;;;;;;;;;;5118647;28;20455;-85
2021/09/23 06:34:54;;;;;;;21.13;6.77;;;;;;;;;;5118272;28;20428;-87
2021/09/23 06:37:21;;;;;;;18.60;6.53;;;;;;;;;;5126148;28;20516;-86
2021/09/23 06:39:48;;;;;;;19.37;7.53;;;;;;;;;;5107664;27;20461;-85
2021/09/23 06:42:16;;;;;;;21.17;8.13;;;;;;;;;;5108414;27;20452;-86
2021/09/23 06:44:43;;;;;;;21.97;7.70;;;;;;;;;;5104994;28;20447;-85
2021/09/23 06:47:10;;;;;;;20.60;7.20;;;;;;;;;;5101426;28;20464;-86
2021/09/23 06:49:39;;;;;;;20.63;7.83;;;;;;;;;;5110686;28;20517;-85
2021/09/23 06:52:07;;;;;;;17.27;6.37;;;;;;;;;;5119462;27;20875;-86
2021/09/23 06:54:34;;;;;;;21.03;7.10;;;;;;;;;;5113563;28;21899;-85
2021/09/23 06:57:01;;;;;;;19.90;7.03;;;;;;;;;;5098399;28;20485;-85
2021/09/23 06:59:28;;;;;;;19.53;6.83;;;;;;;;;;5131481;27;20539;-86
2021/09/23 07:01:55;;;;;;;19.87;6.80;;;;;;;;;;5122276;28;20447;-86
2021/09/23 07:04:24;;;;;;;20.97;6.70;;;;;;;;;;5113268;28;20462;-85
2021/09/23 07:06:53;;;;;;;23.30;7.30;;;;;;;;;;5119251;27;20989;-84
2021/09/23 07:09:21;;;;;;;21.83;7.40;;;;;;;;;;5120550;27;20458;-85
2021/09/23 07:11:48;;;;;;;20.50;7.67;;;;;;;;;;5116582;27;20459;-86
2021/09/23 07:14:15;;;;;;;18.73;6.90;;;;;;;;;;5097959;28;20450;-84
2021/09/23 07:16:42;;;;;;;19.57;7.80;;;;;;;;;;5105424;27;20489;-84
2021/09/23 07:19:10;;;;;;;23.07;7.70;;;;;;;;;;5124046;27;20953;-84
2021/09/23 07:21:37;;;;;;;19.43;7.10;;;;;;;;;;5113852;27;20448;-85
2021/09/23 07:24:06;;;;;;;20.83;7.00;;;;;;;;;;5129977;27;20446;-84
2021/09/23 07:26:33;;;;;;;27.57;6.83;;;;;;;;;;5109949;28;20483;-85
2021/09/23 07:29:00;;;;;;;20.63;8.03;;;;;;;;;;5103470;28;20449;-84
2021/09/23 07:31:27;;;;;;;22.47;8.00;;;;;;;;;;5104214;28;20467;-85
2021/09/23 07:33:54;;;;;;;20.40;8.17;;;;;;;;;;5114743;28;20539;-85
2021/09/23 07:36:22;;;;;;;21.30;7.20;;;;;;;;;;5103131;28;21046;-85
2021/09/23 07:38:49;;;;;;;21.33;7.30;;;;;;;;;;5099916;28;20792;-84
2021/09/23 07:41:17;;;;;;;20.00;7.63;;;;;;;;;;5105279;28;20514;-84
2021/09/23 07:43:44;;;;;;;21.30;8.27;;;;;;;;;;5106239;28;20464;-84
2021/09/23 07:46:12;;;;;;;20.53;7.37;;;;;;;;;;5135552;28;20471;-85
2021/09/23 07:48:39;;;;;;;22.53;8.83;;;;;;;;;;5116232;28;20479;-85
2021/09/23 07:51:06;;;;;;;23.50;8.00;;;;;;;;;;5116482;28;20536;-86
2021/09/23 07:53:33;;;;;;;23.97;9.10;;;;;;;;;;5113968;28;20454;-85
2021/09/23 07:56:00;;;;;;;20.73;7.90;;;;;;;;;;5096924;28;20472;-86
2021/09/23 07:58:29;;;;;;;28.10;9.30;;;;;;;;;;5110933;28;20430;-85
2021/09/23 08:00:58;;;;;;;19.67;7.90;;;;;;;;;;5125163;28;20446;-85
2021/09/23 08:03:26;;;;;;;22.20;8.50;;;;;;;;;;5127161;28;20450;-85
2021/09/23 08:05:53;;;;;;;18.93;7.30;;;;;;;;;;5125113;28;20471;-85
2021/09/23 08:08:20;;;;;;;20.70;8.37;;;;;;;;;;5107838;28;20448;-85
2021/09/23 08:10:47;;;;;;;23.17;7.60;;;;;;;;;;5100620;28;20449;-86
2021/09/23 08:13:14;;;;;;;20.17;7.80;;;;;;;;;;5104560;28;20446;-85
2021/09/23 08:15:43;;;;;;;21.93;7.53;;;;;;;;;;5106970;28;20467;-85
2021/09/23 08:18:10;;;;;;;18.77;6.97;;;;;;;;;;5104943;28;21041;-85
2021/09/23 08:20:37;;;;;;;20.73;7.10;;;;;;;;;;5106491;28;20438;-87
2021/09/23 08:23:05;;;;;;;21.20;7.83;;;;;;;;;;5107576;28;20451;-85
2021/09/23 08:25:32;;;;;;;21.10;7.63;;;;;;;;;;5106745;28;20474;-85
2021/09/23 08:27:59;;;;;;;18.70;6.40;;;;;;;;;;5104860;28;20961;-85
2021/09/23 08:30:27;;;;;;;22.07;7.90;;;;;;;;;;5107659;28;20453;-84
2021/09/23 08:32:55;;;;;;;20.93;7.03;;;;;;;;;;5107018;28;20480;-85
2021/09/23 08:35:23;;;;;;;23.53;8.77;;;;;;;;;;5106815;28;20969;-85
2021/09/23 08:37:50;;;;;;;19.07;7.50;;;;;;;;;;5117440;28;20473;-85
2021/09/23 08:40:17;;;;;;;19.50;7.27;;;;;;;;;;5105646;28;20453;-85
2021/09/23 08:42:45;;;;;;;19.63;7.13;;;;;;;;;;5104147;28;20481;-85
2021/09/23 08:45:13;;;;;;;19.37;6.67;;;;;;;;;;5103920;28;20460;-85
2021/09/23 08:47:42;;;;;;;20.73;7.23;;;;;;;;;;5115082;28;20452;-84
2021/09/23 08:50:12;;;;;;;24.50;8.30;;;;;;;;;;5108047;28;20443;-85
2021/09/23 08:52:40;;;;;;;21.73;7.50;;;;;;;;;;5103248;28;20467;-85
2021/09/23 08:55:08;;;;;;;18.90;6.57;;;;;;;;;;5123512;28;20448;-85
2021/09/23 08:57:35;;;;;;;19.93;7.17;;;;;;;;;;5122810;28;20561;-85
2021/09/23 09:00:07;;;;;;;20.37;6.77;;;;;;;;;;5124133;28;20452;-84
2021/09/23 09:02:34;;;;;;;18.93;6.70;;;;;;;;;;5123556;28;20542;-85
2021/09/23 09:05:01;;;;;;;17.30;6.30;;;;;;;;;;5120812;28;20448;-85
2021/09/23 09:07:29;;;;;;;18.67;6.30;;;;;;;;;;5109414;28;20438;-86
2021/09/23 09:10:01;;;;;;;17.53;6.10;;;;;;;;;;5099598;28;20446;-84
2021/09/23 09:12:29;;;;;;;15.50;5.90;;;;;;;;;;5102187;28;20480;-85
2021/09/23 09:14:57;;;;;;;16.00;4.90;;;;;;;;;;5122717;28;20449;-86
2021/09/23 09:17:24;;;;;;;18.87;5.53;;;;;;;;;;5123700;28;20485;-84
2021/09/23 09:19:54;;;;;;;14.30;4.73;;;;;;;;;;5123992;28;20449;-84
2021/09/23 09:22:24;;;;;;;13.67;5.23;;;;;;;;;;5118831;28;20503;-84
2021/09/23 09:24:54;;;;;;;12.70;4.67;;;;;;;;;;5112205;28;20452;-84
2021/09/23 09:27:29;;;;;;;15.40;4.97;;;;;;;;;;5106894;28;21022;-85
2021/09/23 09:29:56;;;;;;;15.43;5.00;;;;;;;;;;5122514;28;20444;-84
2021/09/23 09:32:50;;;;;;;14.17;5.50;;;;;;;;;;5102037;28;20450;-84
2021/09/23 09:35:19;;;;;;;14.77;4.47;;;;;;;;;;5045365;28;20478;-83
2021/09/23 09:37:48;;;;;;;17.13;5.00;;;;;;;;;;5093340;28;20486;-83
2021/09/23 09:40:17;;;;;;;14.83;5.00;;;;;;;;;;5094770;28;21081;-83
2021/09/23 09:42:45;;;;;;;13.73;4.63;;;;;;;;;;5095652;28;20445;-83
2021/09/23 09:45:17;;;;;;;14.07;4.47;;;;;;;;;;5111676;28;20945;-84
2021/09/23 09:47:48;;;;;;;14.13;4.80;;;;;;;;;;5116034;28;20441;-84
2021/09/23 09:50:16;;;;;;;13.60;4.97;;;;;;;;;;5117574;28;20479;-83
2021/09/23 09:52:48;;;;;;;14.17;4.73;;;;;;;;;;5117452;28;20446;-82
2021/09/23 09:55:18;;;;;;;15.47;4.87;;;;;;;;;;5117402;28;20487;-82
2021/09/23 09:57:46;;;;;;;13.37;5.20;;;;;;;;;;5119802;28;20477;-82
2021/09/23 10:00:13;;;;;;;15.60;5.33;;;;;;;;;;5119855;28;20441;-80
2021/09/23 10:02:43;;;;;;;13.53;4.73;;;;;;;;;;5111852;28;20452;-82
2021/09/23 10:05:10;;;;;;;16.90;6.17;;;;;;;;;;5098820;28;20450;-82
2021/09/23 10:07:38;;;;;;;13.10;4.90;;;;;;;;;;5096953;28;20503;-84
2021/09/23 10:10:05;;;;;;;15.07;5.47;;;;;;;;;;5096880;28;20648;-82
2021/09/23 10:12:34;;;;;;;14.20;5.10;;;;;;;;;;5098341;28;20460;-81
2021/09/23 10:15:02;;;;;;;14.43;5.43;;;;;;;;;;5099297;28;20441;-82
2021/09/23 10:17:30;;;;;;;14.97;5.53;;;;;;;;;;5100758;28;20528;-82
2021/09/23 10:19:58;;;;;;;11.83;5.23;;;;;;;;;;5100764;28;20452;-82
2021/09/23 10:22:26;;;;;;;16.37;5.47;;;;;;;;;;5108020;28;20449;-82
2021/09/23 10:24:53;;;;;;;13.50;4.90;;;;;;;;;;5110649;28;20442;-81
2021/09/23 10:30:08;;;;;;;12.20;5.40;;;;;;;;;;5109353;28;20490;-81
2021/09/23 10:32:35;;;;;;;12.70;4.30;;;;;;;;;;5110526;28;20442;-83
2021/09/23 10:35:03;;;;;;;13.67;4.83;;;;;;;;;;5112530;28;20442;-83
2021/09/23 10:37:31;;;;;;;12.47;4.40;;;;;;;;;;5121308;22;20498;-80
2021/09/23 10:39:58;;;;;;;15.23;4.93;;;;;;;;;;5097443;28;20442;-81
2021/09/23 10:42:26;;;;;;;13.87;4.30;;;;;;;;;;5096343;28;20985;-79
2021/09/23 10:44:55;;;;;;;13.13;4.47;;;;;;;;;;5099288;28;20961;-79
2021/09/23 10:47:28;;;;;;;14.87;4.33;;;;;;;;;;5090026;28;20450;-80
2021/09/23 10:49:56;;;;;;;14.57;5.07;;;;;;;;;;5087553;28;20434;-79
2021/09/23 10:52:25;;;;;;;17.00;4.67;;;;;;;;;;5086225;28;20444;-81
2021/09/23 10:54:53;;;;;;;14.53;6.33;;;;;;;;;;5084483;28;20457;-79
2021/09/23 10:57:21;;;;;;;13.70;4.57;;;;;;;;;;5085496;28;20485;-79
2021/09/23 10:59:48;;;;;;;15.27;5.60;;;;;;;;;;5080578;28;20440;-80
2021/09/23 11:02:22;;;;;;;13.00;4.50;;;;;;;;;;5087458;28;20438;-79
2021/09/23 11:04:51;;;;;;;16.33;5.20;;;;;;;;;;5082303;28;20446;-79
2021/09/23 11:07:19;;;;;;;14.77;4.97;;;;;;;;;;5076547;28;20466;-79
2021/09/23 11:10:01;;;;;;;13.20;5.00;;;;;;;;;;5088945;28;20450;-80
2021/09/23 11:12:28;;;;;;;12.57;4.43;;;;;;;;;;5080266;28;20535;-79
2021/09/23 11:14:57;;;;;;;17.03;5.80;;;;;;;;;;5080873;28;20455;-80
2021/09/23 11:17:25;;;;;;;13.97;5.13;;;;;;;;;;5077214;28;20490;-80
2021/09/23 11:19:56;;;;;;;12.40;4.90;;;;;;;;;;5078039;28;20474;-78
2021/09/23 11:22:31;;;;;;;13.23;5.60;;;;;;;;;;5084823;28;20461;-80
2021/09/23 11:24:59;;;;;;;14.07;4.53;;;;;;;;;;5095124;28;20533;-80
2021/09/23 11:27:26;;;;;;;12.57;5.30;;;;;;;;;;5083166;28;20458;-80
2021/09/23 11:29:54;;;;;;;14.57;5.30;;;;;;;;;;5099123;28;20454;-81
2021/09/23 11:32:22;;;;;;;12.00;4.07;;;;;;;;;;5086710;28;20474;-80
2021/09/23 11:34:58;;;;;;;15.37;4.97;;;;;;;;;;5090196;28;20451;-80
2021/09/23 11:37:28;;;;;;;13.40;4.27;;;;;;;;;;5077763;28;20470;-78
2021/09/23 11:39:57;;;;;;;11.20;3.90;;;;;;;;;;5085950;28;20866;-80
2021/09/23 11:42:26;;;;;;;14.33;5.80;;;;;;;;;;5084279;28;20455;-80
2021/09/23 11:44:53;;;;;;;16.07;5.83;;;;;;;;;;5085897;28;20454;-79
2021/09/23 11:47:21;;;;;;;13.90;5.33;;;;;;;;;;5103882;28;21064;-80
2021/09/23 11:49:50;;;;;;;16.20;6.83;;;;;;;;;;5092039;28;20451;-80
2021/09/23 11:52:18;;;;;;;12.53;5.47;;;;;;;;;;5082011;28;20451;-80
2021/09/23 11:54:46;;;;;;;12.90;5.40;;;;;;;;;;5085310;28;20442;-79
2021/09/23 11:57:24;;;;;;;21.30;9.13;;;;;;;;;;5088948;28;20550;-78
2021/09/23 11:59:54;;;;;;;19.90;8.93;;;;;;;;;;5080542;28;20476;-80
2021/09/23 12:02:21;;;;;;;15.67;5.50;;;;;;;;;;5079549;28;20436;-82
2021/09/23 12:04:53;;;;;;;13.60;5.00;;;;;;;;;;5081502;28;20534;-80
2021/09/23 12:07:22;;;;;;;14.87;6.00;;;;;;;;;;5080308;28;20892;-80
2021/09/23 12:10:05;;;;;;;16.53;7.77;;;;;;;;;;5085786;28;20451;-79
2021/09/23 12:12:32;;;;;;;12.77;6.10;;;;;;;;;;5093036;28;20461;-80
2021/09/23 12:14:59;;;;;;;16.87;8.90;;;;;;;;;;5099829;28;20460;-80
2021/09/23 12:17:26;;;;;;;14.07;6.30;;;;;;;;;;5098866;28;20473;-79
2021/09/23 12:19:54;;;;;;;17.73;9.83;;;;;;;;;;5081429;28;20446;-80
2021/09/23 12:22:30;;;;;;;17.50;6.50;;;;;;;;;;5095565;28;20450;-81
2021/09/23 12:24:57;;;;;;;16.90;5.43;;;;;;;;;;5082773;28;21209;-79
2021/09/23 12:27:25;;;;;;;15.57;7.20;;;;;;;;;;5091344;28;20462;-81
2021/09/23 12:29:55;;;;;;;14.77;6.67;;;;;;;;;;5098307;28;20481;-80
2021/09/23 12:32:31;;;;;;;16.07;7.50;;;;;;;;;;5099657;28;20476;-79
2021/09/23 12:34:58;;;;;;;30.50;17.60;;;;;;;;;;5098141;28;20446;-81
2021/09/23 12:37:25;;;;;;;39.53;20.53;;;;;;;;;;5096146;28;20504;-79
2021/09/23 12:39:54;;;;;;;29.10;15.17;;;;;;;;;;5097726;28;20492;-80
2021/09/23 12:42:22;;;;;;;27.37;14.97;;;;;;;;;;5092439;28;20447;-79
2021/09/23 12:44:56;;;;;;;14.13;6.30;;;;;;;;;;5080782;28;20450;-77
2021/09/23 12:47:23;;;;;;;13.83;6.50;;;;;;;;;;5078289;28;20484;-79
2021/09/23 12:50:01;;;;;;;12.97;6.93;;;;;;;;;;5081459;28;20451;-79
2021/09/23 12:52:30;;;;;;;16.40;7.63;;;;;;;;;;5080741;28;20493;-79
2021/09/23 12:54:59;;;;;;;15.60;6.70;;;;;;;;;;5080835;28;20451;-80
2021/09/23 12:57:27;;;;;;;15.27;6.97;;;;;;;;;;5094274;28;20476;-79
2021/09/23 13:00:08;;;;;;;14.30;6.00;;;;;;;;;;5100326;28;21078;-79
2021/09/23 13:02:35;;;;;;;14.37;5.87;;;;;;;;;;5100237;28;20475;-79
2021/09/23 13:05:07;;;;;;;15.43;6.63;;;;;;;;;;5099288;28;20453;-76
2021/09/23 13:07:41;;;;;;;14.40;5.10;;;;;;;;;;5097714;28;20527;-77
2021/09/23 13:10:11;;;;;;;13.13;5.20;;;;;;;;;;5093505;28;20456;-79
2021/09/23 13:12:39;;;;;;;12.23;5.13;;;;;;;;;;5080180;28;20455;-80
2021/09/23 13:15:17;;;;;;;14.00;5.20;;;;;;;;;;5080104;28;20447;-80
2021/09/23 13:17:45;;;;;;;14.83;5.23;;;;;;;;;;5077080;28;20474;-79
2021/09/23 13:20:12;;;;;;;14.30;5.47;;;;;;;;;;5077293;28;20443;-77
2021/09/23 13:22:40;;;;;;;13.37;5.07;;;;;;;;;;5077416;28;20604;-78
2021/09/23 13:25:08;;;;;;;13.00;6.30;;;;;;;;;;5090356;28;20450;-80
2021/09/23 13:27:36;;;;;;;16.80;5.87;;;;;;;;;;5095409;28;20477;-76
2021/09/23 13:30:05;;;;;;;29.23;5.87;;;;;;;;;;5096389;28;20450;-80
2021/09/23 13:32:32;;;;;;;13.43;4.80;;;;;;;;;;5106546;28;20450;-80
2021/09/23 13:34:59;;;;;;;12.73;4.53;;;;;;;;;;5106747;28;20453;-77
2021/09/23 13:37:26;;;;;;;18.33;5.10;;;;;;;;;;5101565;28;20472;-80
2021/09/23 13:39:54;;;;;;;18.13;6.33;;;;;;;;;;5084046;28;20483;-79
2021/09/23 13:42:21;;;;;;;13.77;5.70;;;;;;;;;;5084461;28;20515;-79
2021/09/23 13:44:51;;;;;;;14.37;5.90;;;;;;;;;;5084405;28;20477;-79
2021/09/23 13:47:18;;;;;;;11.90;4.20;;;;;;;;;;5082363;28;20472;-80
2021/09/23 13:49:45;;;;;;;16.63;5.80;;;;;;;;;;5083154;28;20514;-80
2021/09/23 13:52:12;;;;;;;16.87;5.87;;;;;;;;;;5086049;28;20451;-78
2021/09/23 13:54:41;;;;;;;12.30;4.60;;;;;;;;;;5099094;28;20456;-80
2021/09/23 13:57:08;;;;;;;20.53;7.37;;;;;;;;;;5093567;28;20838;-79
2021/09/23 13:59:35;;;;;;;12.47;5.30;;;;;;;;;;5094174;28;20537;-78
2021/09/23 14:02:04;;;;;;;20.63;6.20;;;;;;;;;;5105110;28;20456;-80
2021/09/23 14:04:31;;;;;;;16.23;7.47;;;;;;;;;;5103642;28;20446;-80
2021/09/23 14:06:58;;;;;;;14.50;5.77;;;;;;;;;;5090168;28;20471;-78
2021/09/23 14:09:25;;;;;;;40.17;29.03;;;;;;;;;;5083777;28;20448;-81
2021/09/23 14:11:52;;;;;;;19.97;7.97;;;;;;;;;;5099447;28;20470;-79
2021/09/23 14:14:22;;;;;;;18.40;9.57;;;;;;;;;;5101979;28;20844;-79
2021/09/23 14:16:49;;;;;;;14.00;6.80;;;;;;;;;;5102734;28;20464;-77
2021/09/23 14:19:17;;;;;;;16.70;6.33;;;;;;;;;;5096139;28;20497;-80
2021/09/23 14:21:44;;;;;;;14.53;6.40;;;;;;;;;;5101378;28;20468;-79
2021/09/23 14:24:15;;;;;;;16.03;7.43;;;;;;;;;;5100782;28;20494;-77
2021/09/23 14:26:46;;;;;;;15.03;6.50;;;;;;;;;;5092086;28;20466;-81
2021/09/23 14:29:13;;;;;;;16.00;7.53;;;;;;;;;;5104839;28;20460;-78
2021/09/23 14:31:40;;;;;;;16.73;7.80;;;;;;;;;;5099030;28;20454;-79
2021/09/23 14:34:07;;;;;;;13.83;5.80;;;;;;;;;;5095470;28;20978;-79